sensor_id;sensor_type;location;lat;lon;timestamp;pressure;altitude;pressure_sealevel;temperature;humidity
10060;BME280;5069;49.306;8.636;2023-03-04T00:00:51;101234.53;;;2.37;89.39
10060;BME280;5069;49.306;8.636;2023-03-04T00:03:53;101232.91;;;2.43;89.31
10060;BME280;5069;49.306;8.636;2023-03-04T00:06:54;101239.78;;;2.38;89.85
10060;BME280;5069;49.306;8.636;2023-03-04T00:09:56;101240.66;;;2.39;89.56
10060;BME280;5069;49.306;8.636;2023-03-04T00:12:57;101244.03;;;2.35;89.70
10060;BME280;5069;49.306;8.636;2023-03-04T00:15:59;101246.56;;;2.27;89.45
10060;BME280;5069;49.306;8.636;2023-03-04T00:19:00;101243.09;;;2.28;90.96
10060;BME280;5069;49.306;8.636;2023-03-04T00:22:02;101237.88;;;2.27;90.13
10060;BME280;5069;49.306;8.636;2023-03-04T00:25:06;101247.44;;;2.28;90.18
10060;BME280;5069;49.306;8.636;2023-03-04T00:28:07;101245.59;;;2.22;90.63
10060;BME280;5069;49.306;8.636;2023-03-04T00:31:09;101246.56;;;2.27;89.89
10060;BME280;5069;49.306;8.636;2023-03-04T00:34:11;101243.03;;;2.24;91.32
10060;BME280;5069;49.306;8.636;2023-03-04T00:37:12;101238.66;;;2.20;90.53
10060;BME280;5069;49.306;8.636;2023-03-04T00:40:14;101250.50;;;2.01;92.39
10060;BME280;5069;49.306;8.636;2023-03-04T00:43:15;101256.50;;;1.95;93.02
10060;BME280;5069;49.306;8.636;2023-03-04T00:46:16;101253.09;;;2.01;93.41
10060;BME280;5069;49.306;8.636;2023-03-04T00:49:18;101256.63;;;2.03;92.86
10060;BME280;5069;49.306;8.636;2023-03-04T00:52:19;101257.50;;;2.03;93.21
10060;BME280;5069;49.306;8.636;2023-03-04T00:55:21;101260.94;;;2.02;92.22
10060;BME280;5069;49.306;8.636;2023-03-04T00:58:22;101258.28;;;1.98;93.56
10060;BME280;5069;49.306;8.636;2023-03-04T01:01:24;101256.44;;;1.91;92.83
10060;BME280;5069;49.306;8.636;2023-03-04T01:04:26;101259.00;;;1.89;93.41
10060;BME280;5069;49.306;8.636;2023-03-04T01:07:27;101258.81;;;1.77;94.46
10060;BME280;5069;49.306;8.636;2023-03-04T01:10:29;101259.69;;;1.76;94.57
10060;BME280;5069;49.306;8.636;2023-03-04T01:13:32;101249.16;;;1.69;94.90
10060;BME280;5069;49.306;8.636;2023-03-04T01:16:33;101255.94;;;1.59;95.48
10060;BME280;5069;49.306;8.636;2023-03-04T01:19:35;101259.34;;;1.56;95.68
10060;BME280;5069;49.306;8.636;2023-03-04T01:22:36;101252.50;;;1.61;96.39
10060;BME280;5069;49.306;8.636;2023-03-04T01:25:38;101249.84;;;1.60;96.09
10060;BME280;5069;49.306;8.636;2023-03-04T01:28:39;101249.84;;;1.60;96.83
10060;BME280;5069;49.306;8.636;2023-03-04T01:31:41;101246.38;;;1.58;95.84
10060;BME280;5069;49.306;8.636;2023-03-04T01:34:42;101245.41;;;1.51;96.85
10060;BME280;5069;49.306;8.636;2023-03-04T01:37:44;101241.97;;;1.54;96.51
10060;BME280;5069;49.306;8.636;2023-03-04T01:40:45;101240.09;;;1.45;96.99
10060;BME280;5069;49.306;8.636;2023-03-04T01:43:49;101241.06;;;1.50;98.03
10060;BME280;5069;49.306;8.636;2023-03-04T01:46:52;101235.88;;;1.52;96.98
10060;BME280;5069;49.306;8.636;2023-03-04T01:49:56;101240.28;;;1.56;96.38
10060;BME280;5069;49.306;8.636;2023-03-04T01:52:58;101237.53;;;1.47;96.71
10060;BME280;5069;49.306;8.636;2023-03-04T01:56:04;101234.06;;;1.46;96.88
10060;BME280;5069;49.306;8.636;2023-03-04T01:59:19;101231.28;;;1.37;97.14
10060;BME280;5069;49.306;8.636;2023-03-04T02:02:21;101227.88;;;1.40;98.06
10060;BME280;5069;49.306;8.636;2023-03-04T02:05:23;101226.97;;;1.38;97.79
10060;BME280;5069;49.306;8.636;2023-03-04T02:08:24;101226.88;;;1.32;97.68
10060;BME280;5069;49.306;8.636;2023-03-04T02:11:26;101214.66;;;1.24;98.18
10060;BME280;5069;49.306;8.636;2023-03-04T02:14:28;101213.78;;;1.24;98.38
10060;BME280;5069;49.306;8.636;2023-03-04T02:17:31;101211.88;;;1.14;98.88
10060;BME280;5069;49.306;8.636;2023-03-04T02:25:21;101213.56;;;1.12;99.92
10060;BME280;5069;49.306;8.636;2023-03-04T02:28:24;101212.53;;;1.02;100.00
10060;BME280;5069;49.306;8.636;2023-03-04T02:31:32;101216.66;;;0.91;100.00
10060;BME280;5069;49.306;8.636;2023-03-04T02:34:35;101214.97;;;0.95;100.00
10060;BME280;5069;49.306;8.636;2023-03-04T02:37:36;101215.81;;;0.94;100.00
10060;BME280;5069;49.306;8.636;2023-03-04T02:40:40;101215.03;;;0.99;100.00
10060;BME280;5069;49.306;8.636;2023-03-04T02:43:45;101211.47;;;0.91;100.00
10060;BME280;5069;49.306;8.636;2023-03-04T02:46:48;101215.69;;;0.88;100.00
10060;BME280;5069;49.306;8.636;2023-03-04T02:49:50;101212.94;;;0.80;100.00
10060;BME280;5069;49.306;8.636;2023-03-04T02:52:51;101212.19;;;0.84;100.00
10060;BME280;5069;49.306;8.636;2023-03-04T02:55:53;101206.03;;;0.79;100.00
10060;BME280;5069;49.306;8.636;2023-03-04T02:58:56;101205.28;;;0.86;100.00
10060;BME280;5069;49.306;8.636;2023-03-04T03:01:59;101210.47;;;0.86;100.00
10060;BME280;5069;49.306;8.636;2023-03-04T03:05:00;101202.72;;;0.88;100.00
10060;BME280;5069;49.306;8.636;2023-03-04T03:08:03;101211.38;;;0.88;100.00
10060;BME280;5069;49.306;8.636;2023-03-04T03:11:04;101204.34;;;0.82;100.00
10060;BME280;5069;49.306;8.636;2023-03-04T03:14:09;101212.09;;;0.81;100.00
10060;BME280;5069;49.306;8.636;2023-03-04T03:17:10;101206.03;;;0.79;100.00
10060;BME280;5069;49.306;8.636;2023-03-04T03:20:13;101206.75;;;0.72;100.00
10060;BME280;5069;49.306;8.636;2023-03-04T03:23:15;101201.78;;;0.39;100.00
10060;BME280;5069;49.306;8.636;2023-03-04T03:26:18;101211.94;;;0.30;100.00
10060;BME280;5069;49.306;8.636;2023-03-04T03:29:20;101202.31;;;0.24;100.00
10060;BME280;5069;49.306;8.636;2023-03-04T03:32:22;101202.41;;;0.29;100.00
10060;BME280;5069;49.306;8.636;2023-03-04T03:35:24;101203.41;;;0.34;100.00
10060;BME280;5069;49.306;8.636;2023-03-04T03:38:26;101200.19;;;0.47;100.00
10060;BME280;5069;49.306;8.636;2023-03-04T03:41:28;101200.25;;;0.49;100.00
10060;BME280;5069;49.306;8.636;2023-03-04T03:44:29;101201.03;;;0.45;100.00
10060;BME280;5069;49.306;8.636;2023-03-04T03:47:30;101206.09;;;0.40;100.00
10060;BME280;5069;49.306;8.636;2023-03-04T03:50:32;101209.41;;;0.31;100.00
10060;BME280;5069;49.306;8.636;2023-03-04T03:53:33;101213.88;;;0.40;100.00
10060;BME280;5069;49.306;8.636;2023-03-04T03:56:35;101211.41;;;0.45;100.00
10060;BME280;5069;49.306;8.636;2023-03-04T03:59:36;101221.91;;;0.51;100.00
10060;BME280;5069;49.306;8.636;2023-03-04T04:02:38;101223.72;;;0.55;100.00
10060;BME280;5069;49.306;8.636;2023-03-04T04:05:40;101225.44;;;0.54;100.00
10060;BME280;5069;49.306;8.636;2023-03-04T04:08:41;101222.84;;;0.54;100.00
10060;BME280;5069;49.306;8.636;2023-03-04T04:11:43;101225.38;;;0.53;100.00
10060;BME280;5069;49.306;8.636;2023-03-04T04:14:44;101230.56;;;0.53;100.00
10060;BME280;5069;49.306;8.636;2023-03-04T04:17:46;101225.38;;;0.53;100.00
10060;BME280;5069;49.306;8.636;2023-03-04T04:20:47;101225.38;;;0.53;100.00
10060;BME280;5069;49.306;8.636;2023-03-04T04:23:48;101221.03;;;0.50;100.00
10060;BME280;5069;49.306;8.636;2023-03-04T04:26:50;101227.97;;;0.53;100.00
10060;BME280;5069;49.306;8.636;2023-03-04T04:29:51;101230.66;;;0.56;100.00
10060;BME280;5069;49.306;8.636;2023-03-04T04:32:53;101221.69;;;0.41;100.00
10060;BME280;5069;49.306;8.636;2023-03-04T04:35:54;101226.84;;;0.38;100.00
10060;BME280;5069;49.306;8.636;2023-03-04T04:38:56;101218.06;;;0.32;100.00
10060;BME280;5069;49.306;8.636;2023-03-04T04:41:57;101227.19;;;0.15;100.00
10060;BME280;5069;49.306;8.636;2023-03-04T04:44:59;101221.00;;;0.08;100.00
10060;BME280;5069;49.306;8.636;2023-03-04T04:48:00;101227.00;;;0.06;100.00
10060;BME280;5069;49.306;8.636;2023-03-04T04:51:02;101234.50;;;-0.05;100.00
10060;BME280;5069;49.306;8.636;2023-03-04T04:54:04;101233.66;;;-0.04;100.00
10060;BME280;5069;49.306;8.636;2023-03-04T04:57:05;101231.31;;;0.05;100.00
10060;BME280;5069;49.306;8.636;2023-03-04T05:00:08;101233.31;;;0.18;100.00
10060;BME280;5069;49.306;8.636;2023-03-04T05:03:10;101222.22;;;0.25;100.00
10060;BME280;5069;49.306;8.636;2023-03-04T05:06:12;101227.69;;;0.37;100.00
10060;BME280;5069;49.306;8.636;2023-03-04T05:09:13;101226.84;;;0.38;100.00
10060;BME280;5069;49.306;8.636;2023-03-04T05:12:15;101225.22;;;0.44;100.00
10060;BME280;5069;49.306;8.636;2023-03-04T05:15:16;101226.84;;;0.38;100.00
10060;BME280;5069;49.306;8.636;2023-03-04T05:18:19;101226.88;;;0.41;100.00
10060;BME280;5069;49.306;8.636;2023-03-04T05:21:20;101227.84;;;0.45;100.00
10060;BME280;5069;49.306;8.636;2023-03-04T05:24:22;101234.75;;;0.45;100.00
10060;BME280;5069;49.306;8.636;2023-03-04T05:27:23;101230.13;;;0.31;100.00
10060;BME280;5069;49.306;8.636;2023-03-04T05:30:24;101231.53;;;0.17;100.00
10060;BME280;5069;49.306;8.636;2023-03-04T05:33:26;101234.88;;;0.10;100.00
10060;BME280;5069;49.306;8.636;2023-03-04T05:36:27;101229.75;;;0.13;100.00
10060;BME280;5069;49.306;8.636;2023-03-04T05:39:29;101241.72;;;0.08;100.00
10060;BME280;5069;49.306;8.636;2023-03-04T05:42:30;101239.38;;;0.19;100.00
10060;BME280;5069;49.306;8.636;2023-03-04T05:45:32;101235.94;;;0.20;100.00
10060;BME280;5069;49.306;8.636;2023-03-04T05:48:33;101240.34;;;0.22;100.00
10060;BME280;5069;49.306;8.636;2023-03-04T05:51:35;101243.84;;;0.26;100.00
10060;BME280;5069;49.306;8.636;2023-03-04T05:54:36;101246.56;;;0.32;100.00
10060;BME280;5069;49.306;8.636;2023-03-04T05:57:38;101247.50;;;0.35;100.00
10060;BME280;5069;49.306;8.636;2023-03-04T06:00:39;101234.63;;;0.40;100.00
10060;BME280;5069;49.306;8.636;2023-03-04T06:03:40;101240.81;;;0.47;100.00
10060;BME280;5069;49.306;8.636;2023-03-04T06:06:43;101248.69;;;0.50;100.00
10060;BME280;5069;49.306;8.636;2023-03-04T06:09:46;101240.81;;;0.47;100.00
10060;BME280;5069;49.306;8.636;2023-03-04T06:12:48;101244.47;;;0.55;100.00
10060;BME280;5069;49.306;8.636;2023-03-04T06:15:57;101247.91;;;0.54;100.00
10060;BME280;5069;49.306;8.636;2023-03-04T06:18:59;101240.91;;;0.50;100.00
10060;BME280;5069;49.306;8.636;2023-03-04T06:22:00;101246.00;;;0.47;100.00
10060;BME280;5069;49.306;8.636;2023-03-04T06:25:02;101257.34;;;0.52;100.00
10060;BME280;5069;49.306;8.636;2023-03-04T06:28:03;101260.03;;;0.55;100.00
10060;BME280;5069;49.306;8.636;2023-03-04T06:31:05;101265.25;;;0.58;100.00
10060;BME280;5069;49.306;8.636;2023-03-04T06:34:08;101267.97;;;0.62;100.00
10060;BME280;5069;49.306;8.636;2023-03-04T06:37:09;101279.16;;;0.60;100.00
10060;BME280;5069;49.306;8.636;2023-03-04T06:40:11;101279.28;;;0.66;100.00
10060;BME280;5069;49.306;8.636;2023-03-04T06:43:13;101277.03;;;0.82;100.00
10060;BME280;5069;49.306;8.636;2023-03-04T06:46:14;101289.13;;;0.82;100.00
10060;BME280;5069;49.306;8.636;2023-03-04T06:49:16;101281.94;;;0.69;100.00
10060;BME280;5069;49.306;8.636;2023-03-04T06:52:17;101286.38;;;0.74;100.00
10060;BME280;5069;49.306;8.636;2023-03-04T06:55:19;101283.84;;;0.77;100.00
10060;BME280;5069;49.306;8.636;2023-03-04T06:58:20;101284.59;;;0.72;100.00
10060;BME280;5069;49.306;8.636;2023-03-04T07:01:24;101284.53;;;0.69;100.00
10060;BME280;5069;49.306;8.636;2023-03-04T07:04:26;101289.97;;;0.81;100.00
10060;BME280;5069;49.306;8.636;2023-03-04T07:07:27;101294.41;;;0.85;100.00
10060;BME280;5069;49.306;8.636;2023-03-04T07:10:29;101292.81;;;0.93;100.00
10060;BME280;5069;49.306;8.636;2023-03-04T07:13:30;101293.59;;;0.89;100.00
10060;BME280;5069;49.306;8.636;2023-03-04T07:16:32;101294.72;;;1.02;100.00
10060;BME280;5069;49.306;8.636;2023-03-04T07:19:34;101295.69;;;1.08;100.00
10060;BME280;5069;49.306;8.636;2023-03-04T07:22:35;101301.00;;;1.14;100.00
10060;BME280;5069;49.306;8.636;2023-03-04T07:25:37;101304.63;;;1.22;100.00
10060;BME280;5069;49.306;8.636;2023-03-04T07:28:38;101313.47;;;1.32;100.00
10060;BME280;5069;49.306;8.636;2023-03-04T07:31:40;101311.75;;;1.33;100.00
10060;BME280;5069;49.306;8.636;2023-03-04T07:34:42;101309.22;;;1.37;100.00
10060;BME280;5069;49.306;8.636;2023-03-04T07:37:43;101312.53;;;1.29;100.00
10060;BME280;5069;49.306;8.636;2023-03-04T07:40:54;101314.59;;;1.46;100.00
10060;BME280;5069;49.306;8.636;2023-03-04T07:43:56;101315.28;;;1.36;100.00
10060;BME280;5069;49.306;8.636;2023-03-04T07:46:58;101318.00;;;1.42;100.00
10060;BME280;5069;49.306;8.636;2023-03-04T07:49:59;101317.13;;;1.43;100.00
10060;BME280;5069;49.306;8.636;2023-03-04T07:53:01;101321.41;;;1.40;100.00
10060;BME280;5069;49.306;8.636;2023-03-04T07:56:03;101312.94;;;1.50;100.00
10060;BME280;5069;49.306;8.636;2023-03-04T07:59:05;101327.78;;;1.57;100.00
10060;BME280;5069;49.306;8.636;2023-03-04T08:02:06;101321.75;;;1.58;100.00
10060;BME280;5069;49.306;8.636;2023-03-04T08:05:08;101324.38;;;1.61;100.00
10060;BME280;5069;49.306;8.636;2023-03-04T08:08:09;101323.47;;;1.57;100.00
10060;BME280;5069;49.306;8.636;2023-03-04T08:11:14;101323.78;;;1.77;100.00
10060;BME280;5069;49.306;8.636;2023-03-04T08:14:16;101328.31;;;1.87;100.00
10060;BME280;5069;49.306;8.636;2023-03-04T08:17:17;101331.03;;;1.95;100.00
10060;BME280;5069;49.306;8.636;2023-03-04T08:20:19;101327.47;;;1.90;100.00
10060;BME280;5069;49.306;8.636;2023-03-04T08:23:20;101327.53;;;1.94;100.00
10060;BME280;5069;49.306;8.636;2023-03-04T08:26:24;101323.25;;;1.96;100.00
10060;BME280;5069;49.306;8.636;2023-03-04T08:29:27;101316.91;;;1.79;100.00
10060;BME280;5069;49.306;8.636;2023-03-04T08:32:28;101330.03;;;1.88;100.00
10060;BME280;5069;49.306;8.636;2023-03-04T08:35:30;101330.03;;;1.88;100.00
10060;BME280;5069;49.306;8.636;2023-03-04T08:38:31;101325.63;;;1.83;100.00
10060;BME280;5069;49.306;8.636;2023-03-04T08:41:33;101325.75;;;1.90;100.00
10060;BME280;5069;49.306;8.636;2023-03-04T08:44:34;101332.03;;;2.03;100.00
10060;BME280;5069;49.306;8.636;2023-03-04T08:47:36;101328.69;;;2.12;100.00
10060;BME280;5069;49.306;8.636;2023-03-04T08:50:38;101328.00;;;2.22;100.00
10060;BME280;5069;49.306;8.636;2023-03-04T08:53:40;101334.94;;;2.23;100.00
10060;BME280;5069;49.306;8.636;2023-03-04T08:56:41;101335.91;;;2.28;100.00
10060;BME280;5069;49.306;8.636;2023-03-04T08:59:43;101331.63;;;2.34;100.00
10060;BME280;5069;49.306;8.636;2023-03-04T09:02:44;101333.41;;;2.37;100.00
10060;BME280;5069;49.306;8.636;2023-03-04T09:05:46;101332.66;;;2.44;100.00
10060;BME280;5069;49.306;8.636;2023-03-04T09:08:48;101328.25;;;2.38;100.00
10060;BME280;5069;49.306;8.636;2023-03-04T09:11:50;101327.31;;;2.35;100.00
10060;BME280;5069;49.306;8.636;2023-03-04T09:14:51;101330.06;;;2.44;100.00
10060;BME280;5069;49.306;8.636;2023-03-04T09:18:10;101326.75;;;2.57;100.00
10060;BME280;5069;49.306;8.636;2023-03-04T09:21:12;101330.31;;;2.64;100.00
10060;BME280;5069;49.306;8.636;2023-03-04T09:24:14;101321.53;;;2.57;100.00
10060;BME280;5069;49.306;8.636;2023-03-04T09:27:15;101330.13;;;2.48;100.00
10060;BME280;5069;49.306;8.636;2023-03-04T09:30:17;101327.47;;;2.44;100.00
10060;BME280;5069;49.306;8.636;2023-03-04T09:33:18;101335.44;;;2.56;100.00
10060;BME280;5069;49.306;8.636;2023-03-04T09:36:20;101329.59;;;2.75;100.00
10060;BME280;5069;49.306;8.636;2023-03-04T09:39:22;101340.09;;;2.81;100.00
10060;BME280;5069;49.306;8.636;2023-03-04T09:42:35;101337.47;;;2.80;100.00
10060;BME280;5069;49.306;8.636;2023-03-04T09:45:42;101341.97;;;2.91;100.00
10060;BME280;5069;49.306;8.636;2023-03-04T09:48:51;101336.69;;;2.85;100.00
10060;BME280;5069;49.306;8.636;2023-03-04T09:52:17;101332.50;;;2.98;100.00
10060;BME280;5069;49.306;8.636;2023-03-04T09:55:37;101339.63;;;3.11;100.00
10060;BME280;5069;49.306;8.636;2023-03-04T09:58:57;101344.03;;;3.17;99.72
10060;BME280;5069;49.306;8.636;2023-03-04T10:02:15;101341.28;;;3.08;99.48
10060;BME280;5069;49.306;8.636;2023-03-04T10:05:20;101341.47;;;3.21;100.00
10060;BME280;5069;49.306;8.636;2023-03-04T10:08:39;101347.44;;;3.11;97.81
10060;BME280;5069;49.306;8.636;2023-03-04T10:11:47;101351.09;;;3.27;97.82
10060;BME280;5069;49.306;8.636;2023-03-04T10:14:58;101350.34;;;3.39;97.63
10060;BME280;5069;49.306;8.636;2023-03-04T10:18:35;101342.63;;;3.49;96.10
10060;BME280;5069;49.306;8.636;2023-03-04T10:21:41;101342.63;;;3.46;95.35
10060;BME280;5069;49.306;8.636;2023-03-04T10:24:43;101342.59;;;3.45;96.16
10060;BME280;5069;49.306;8.636;2023-03-04T10:27:51;101340.13;;;3.57;95.86
10060;BME280;5069;49.306;8.636;2023-03-04T10:31:20;101343.63;;;3.60;94.02
10060;BME280;5069;49.306;8.636;2023-03-04T10:34:26;101341.00;;;3.60;94.56
10060;BME280;5069;49.306;8.636;2023-03-04T10:37:44;101333.97;;;3.53;94.29
10060;BME280;5069;49.306;8.636;2023-03-04T10:40:45;101330.63;;;3.65;94.57
10060;BME280;5069;49.306;8.636;2023-03-04T10:47:01;101327.19;;;3.67;94.35
10060;BME280;5069;49.306;8.636;2023-03-04T10:50:04;101322.88;;;3.72;94.20
10060;BME280;5069;49.306;8.636;2023-03-04T10:53:23;101320.34;;;3.82;93.69
10060;BME280;5069;49.306;8.636;2023-03-04T10:56:34;101324.66;;;3.75;94.12
10060;BME280;5069;49.306;8.636;2023-03-04T10:59:42;101324.75;;;3.87;94.76
10060;BME280;5069;49.306;8.636;2023-03-04T11:02:45;101318.72;;;3.99;92.43
10060;BME280;5069;49.306;8.636;2023-03-04T11:05:47;101313.50;;;3.96;91.76
10060;BME280;5069;49.306;8.636;2023-03-04T11:08:53;101311.84;;;4.04;92.08
10060;BME280;5069;49.306;8.636;2023-03-04T11:11:58;101311.84;;;4.07;90.70
10060;BME280;5069;49.306;8.636;2023-03-04T11:15:01;101304.88;;;4.06;90.55
10060;BME280;5069;49.306;8.636;2023-03-04T11:18:06;101298.91;;;4.19;90.28
10060;BME280;5069;49.306;8.636;2023-03-04T11:21:16;101292.00;;;4.30;88.98
10060;BME280;5069;49.306;8.636;2023-03-04T11:24:25;101283.31;;;4.34;89.95
10060;BME280;5069;49.306;8.636;2023-03-04T11:27:41;101271.19;;;4.41;88.92
10060;BME280;5069;49.306;8.636;2023-03-04T11:33:55;101278.13;;;4.40;87.34
10060;BME280;5069;49.306;8.636;2023-03-04T11:37:05;101276.50;;;4.59;86.98
10060;BME280;5069;49.306;8.636;2023-03-04T11:40:14;101264.28;;;4.49;86.68
10060;BME280;5069;49.306;8.636;2023-03-04T11:43:21;101271.25;;;4.53;84.41
10060;BME280;5069;49.306;8.636;2023-03-04T11:49:59;101265.19;;;4.58;85.00
10060;BME280;5069;49.306;8.636;2023-03-04T11:53:22;101270.47;;;4.71;83.42
10060;BME280;5069;49.306;8.636;2023-03-04T12:09:54;101256.56;;;4.72;80.04
10060;BME280;5069;49.306;8.636;2023-03-04T12:16:42;101239.09;;;4.65;79.75
10060;BME280;5069;49.306;8.636;2023-03-04T12:23:15;101228.69;;;4.74;79.54
10060;BME280;5069;49.306;8.636;2023-03-04T12:26:32;101228.75;;;4.89;78.92
10060;BME280;5069;49.306;8.636;2023-03-04T12:32:57;101216.59;;;5.21;74.17
10060;BME280;5069;49.306;8.636;2023-03-04T12:43:07;101213.09;;;5.13;76.35
10060;BME280;5069;49.306;8.636;2023-03-04T12:46:26;101216.59;;;5.12;77.21
10060;BME280;5069;49.306;8.636;2023-03-04T12:49:58;101207.84;;;4.92;76.51
10060;BME280;5069;49.306;8.636;2023-03-04T12:53:09;101200.84;;;4.82;77.22
10060;BME280;5069;49.306;8.636;2023-03-04T12:59:25;101198.25;;;4.95;77.20
10060;BME280;5069;49.306;8.636;2023-03-04T13:06:20;101199.19;;;5.23;76.90
10060;BME280;5069;49.306;8.636;2023-03-04T13:09:41;101197.44;;;5.30;74.95
10060;BME280;5069;49.306;8.636;2023-03-04T13:12:52;101192.19;;;4.98;75.44
10060;BME280;5069;49.306;8.636;2023-03-04T13:16:05;101187.78;;;4.91;75.91
10060;BME280;5069;49.306;8.636;2023-03-04T13:19:50;101188.69;;;5.02;75.19
10060;BME280;5069;49.306;8.636;2023-03-04T13:22:56;101183.50;;;5.20;74.51
10060;BME280;5069;49.306;8.636;2023-03-04T13:32:35;101185.19;;;4.97;74.57
10060;BME280;5069;49.306;8.636;2023-03-04T13:42:37;101179.09;;;5.03;75.91
10060;BME280;5069;49.306;8.636;2023-03-04T13:45:40;101171.28;;;5.03;75.63
10060;BME280;5069;49.306;8.636;2023-03-04T13:48:41;101176.53;;;5.22;74.08
10060;BME280;5069;49.306;8.636;2023-03-04T13:51:43;101169.53;;;5.09;74.82
10060;BME280;5069;49.306;8.636;2023-03-04T13:54:46;101164.34;;;5.23;74.88
10060;BME280;5069;49.306;8.636;2023-03-04T13:57:49;101160.84;;;5.16;74.95
10060;BME280;5069;49.306;8.636;2023-03-04T14:00:53;101155.59;;;5.04;75.10
10060;BME280;5069;49.306;8.636;2023-03-04T14:03:55;101159.06;;;4.97;75.89
10060;BME280;5069;49.306;8.636;2023-03-04T14:06:58;101158.19;;;4.96;75.97
10060;BME280;5069;49.306;8.636;2023-03-04T14:10:03;101150.38;;;4.98;75.75
10060;BME280;5069;49.306;8.636;2023-03-04T14:13:07;101157.34;;;4.94;75.51
10060;BME280;5069;49.306;8.636;2023-03-04T14:16:10;101150.34;;;4.92;75.40
10060;BME280;5069;49.306;8.636;2023-03-04T14:19:22;101150.38;;;4.89;76.43
10060;BME280;5069;49.306;8.636;2023-03-04T14:22:27;101143.41;;;4.88;76.60
10060;BME280;5069;49.306;8.636;2023-03-04T14:25:34;101142.53;;;5.04;76.00
10060;BME280;5069;49.306;8.636;2023-03-04T14:28:48;101144.28;;;5.08;76.13
10060;BME280;5069;49.306;8.636;2023-03-04T14:31:51;101141.66;;;4.93;75.86
10060;BME280;5069;49.306;8.636;2023-03-04T14:34:57;101137.31;;;4.95;76.40
10060;BME280;5069;49.306;8.636;2023-03-04T14:38:03;101136.44;;;5.05;76.39
10060;BME280;5069;49.306;8.636;2023-03-04T14:41:10;101133.81;;;5.08;76.17
10060;BME280;5069;49.306;8.636;2023-03-04T14:47:39;101129.47;;;5.07;76.40
10060;BME280;5069;49.306;8.636;2023-03-04T14:50:49;101127.75;;;5.21;75.81
10060;BME280;5069;49.306;8.636;2023-03-04T14:53:55;101118.16;;;5.38;74.84
10060;BME280;5069;49.306;8.636;2023-03-04T14:56:59;101117.25;;;5.43;74.02
10060;BME280;5069;49.306;8.636;2023-03-04T15:03:28;101109.44;;;5.38;75.17
10060;BME280;5069;49.306;8.636;2023-03-04T15:06:36;101108.56;;;5.34;75.07
10060;BME280;5069;49.306;8.636;2023-03-04T15:09:39;101112.91;;;5.38;74.63
10060;BME280;5069;49.306;8.636;2023-03-04T15:12:49;101105.94;;;5.40;75.04
10060;BME280;5069;49.306;8.636;2023-03-04T15:15:59;101101.56;;;5.52;75.94
10060;BME280;5069;49.306;8.636;2023-03-04T15:19:04;101095.47;;;5.48;74.41
10060;BME280;5069;49.306;8.636;2023-03-04T15:22:06;101096.38;;;5.39;74.54
10060;BME280;5069;49.306;8.636;2023-03-04T15:25:11;101084.16;;;5.38;74.78
10060;BME280;5069;49.306;8.636;2023-03-04T15:28:19;101092.88;;;5.40;74.44
10060;BME280;5069;49.306;8.636;2023-03-04T15:31:22;101096.38;;;5.41;74.89
10060;BME280;5069;49.306;8.636;2023-03-04T15:34:24;101097.19;;;5.48;74.76
10060;BME280;5069;49.306;8.636;2023-03-04T15:37:27;101092.84;;;5.50;74.87
10060;BME280;5069;49.306;8.636;2023-03-04T15:40:35;101089.38;;;5.41;74.58
10060;BME280;5069;49.306;8.636;2023-03-04T15:43:39;101092.00;;;5.40;75.12
10060;BME280;5069;49.306;8.636;2023-03-04T15:46:40;101087.63;;;5.37;75.25
10060;BME280;5069;49.306;8.636;2023-03-04T15:49:43;101085.91;;;5.33;75.28
10060;BME280;5069;49.306;8.636;2023-03-04T15:52:47;101090.25;;;5.42;75.97
10060;BME280;5069;49.306;8.636;2023-03-04T15:55:51;101090.25;;;5.37;75.82
10060;BME280;5069;49.306;8.636;2023-03-04T15:58:55;101084.16;;;5.38;75.94
10060;BME280;5069;49.306;8.636;2023-03-04T16:01:56;101089.38;;;5.38;75.95
10060;BME280;5069;49.306;8.636;2023-03-04T16:04:58;101085.91;;;5.41;76.20
10060;BME280;5069;49.306;8.636;2023-03-04T16:07:59;101087.66;;;5.40;76.06
10060;BME280;5069;49.306;8.636;2023-03-04T16:11:01;101086.78;;;5.38;75.79
10060;BME280;5069;49.306;8.636;2023-03-04T16:14:03;101074.56;;;5.39;75.95
10060;BME280;5069;49.306;8.636;2023-03-04T16:17:04;101085.00;;;5.48;75.77
10060;BME280;5069;49.306;8.636;2023-03-04T16:20:06;101083.28;;;5.38;76.56
10060;BME280;5069;49.306;8.636;2023-03-04T16:23:22;101078.94;;;5.38;77.11
10060;BME280;5069;49.306;8.636;2023-03-04T16:26:29;101080.66;;;5.50;76.61
10060;BME280;5069;49.306;8.636;2023-03-04T16:29:31;101075.44;;;5.46;76.32
10060;BME280;5069;49.306;8.636;2023-03-04T16:32:32;101073.69;;;5.41;76.11
10060;BME280;5069;49.306;8.636;2023-03-04T16:35:36;101080.66;;;5.36;76.44
10060;BME280;5069;49.306;8.636;2023-03-04T16:38:37;101077.19;;;5.34;77.23
10060;BME280;5069;49.306;8.636;2023-03-04T16:41:39;101079.81;;;5.33;77.03
10060;BME280;5069;49.306;8.636;2023-03-04T16:44:40;101077.19;;;5.28;77.09
10060;BME280;5069;49.306;8.636;2023-03-04T16:47:42;101080.66;;;5.30;77.37
10060;BME280;5069;49.306;8.636;2023-03-04T16:50:43;101073.72;;;5.26;77.66
10060;BME280;5069;49.306;8.636;2023-03-04T16:53:51;101067.63;;;5.23;78.32
10060;BME280;5069;49.306;8.636;2023-03-04T16:56:53;101080.66;;;5.30;78.00
10060;BME280;5069;49.306;8.636;2023-03-04T16:59:54;101071.09;;;5.26;77.71
10060;BME280;5069;49.306;8.636;2023-03-04T17:02:58;101064.97;;;5.30;77.53
10060;BME280;5069;49.306;8.636;2023-03-04T17:06:00;101069.34;;;5.31;77.52
10060;BME280;5069;49.306;8.636;2023-03-04T17:09:02;101070.22;;;5.27;77.53
10060;BME280;5069;49.306;8.636;2023-03-04T17:12:05;101068.50;;;5.23;77.37
10060;BME280;5069;49.306;8.636;2023-03-04T17:15:09;101072.88;;;5.11;78.61
10060;BME280;5069;49.306;8.636;2023-03-04T17:18:11;101071.09;;;5.14;78.53
10060;BME280;5069;49.306;8.636;2023-03-04T17:21:17;101077.19;;;5.13;78.75
10060;BME280;5069;49.306;8.636;2023-03-04T17:24:18;101078.09;;;5.17;78.70
10060;BME280;5069;49.306;8.636;2023-03-04T17:27:20;101078.94;;;5.14;78.44
10060;BME280;5069;49.306;8.636;2023-03-04T17:30:21;101076.34;;;5.16;78.86
10060;BME280;5069;49.306;8.636;2023-03-04T17:33:23;101077.22;;;5.22;78.92